createdAt,value
2018-12-14T00:02:07.680Z,0.80
2018-12-14T00:04:36.754Z,0.79
2018-12-14T00:07:05.873Z,0.78
2018-12-14T00:09:34.944Z,0.79
2018-12-14T00:12:04.278Z,0.77
2018-12-14T00:14:33.321Z,0.79
2018-12-14T00:17:02.351Z,0.77
2018-12-14T00:19:31.392Z,0.73
2018-12-14T00:22:00.652Z,0.75
2018-12-14T00:24:29.633Z,0.74
2018-12-14T00:26:59.042Z,0.75
2018-12-14T00:29:28.110Z,0.75
2018-12-14T00:31:57.173Z,0.75
2018-12-14T00:34:26.182Z,0.79
2018-12-14T00:36:55.193Z,0.81
2018-12-14T00:39:24.217Z,0.83
2018-12-14T00:41:53.204Z,0.84
2018-12-14T00:44:22.255Z,0.82
2018-12-14T00:46:51.323Z,0.81
2018-12-14T00:49:20.367Z,0.82
2018-12-14T00:51:49.358Z,0.81
2018-12-14T00:54:18.434Z,0.81
2018-12-14T00:56:47.434Z,0.79
2018-12-14T00:59:16.504Z,0.77
2018-12-14T01:01:45.642Z,0.77
2018-12-14T01:04:14.618Z,0.75
2018-12-14T01:06:43.698Z,0.72
2018-12-14T01:09:12.875Z,0.72
2018-12-14T01:11:42.208Z,0.70
2018-12-14T01:14:11.334Z,0.73
2018-12-14T01:16:40.498Z,0.72
2018-12-14T01:19:09.467Z,0.72
2018-12-14T01:21:38.443Z,0.73
2018-12-14T01:24:07.434Z,0.71
2018-12-14T01:26:36.455Z,0.74
2018-12-14T01:29:05.525Z,0.74
2018-12-14T01:31:34.512Z,0.73
2018-12-14T01:34:03.556Z,0.74
2018-12-14T01:36:32.746Z,0.72
2018-12-14T01:39:01.865Z,0.68
2018-12-14T01:41:30.878Z,0.68
2018-12-14T01:43:59.846Z,0.68
2018-12-14T01:46:28.903Z,0.69
2018-12-14T01:48:57.908Z,0.66
2018-12-14T01:51:26.988Z,0.68
2018-12-14T01:53:56.001Z,0.68
2018-12-14T01:56:24.983Z,0.68
2018-12-14T01:58:54.053Z,0.71
2018-12-14T02:01:23.024Z,0.74
2018-12-14T02:03:52.017Z,0.79
2018-12-14T02:06:21.085Z,0.83
2018-12-14T02:08:50.089Z,0.81
2018-12-14T02:11:19.159Z,0.81
2018-12-14T02:13:48.275Z,0.82
2018-12-14T02:16:17.370Z,0.84
2018-12-14T02:18:46.449Z,0.88
2018-12-14T02:21:15.432Z,0.89
2018-12-14T02:23:44.443Z,0.90
2018-12-14T02:26:13.563Z,0.93
2018-12-14T02:28:42.610Z,0.92
2018-12-14T02:31:11.649Z,0.93
2018-12-14T02:33:40.666Z,0.92
2018-12-14T02:36:09.729Z,0.90
2018-12-14T02:38:38.723Z,0.92
2018-12-14T02:41:07.803Z,0.93
2018-12-14T02:43:37.064Z,0.92
2018-12-14T02:46:06.237Z,0.92
2018-12-14T02:48:35.198Z,0.89
2018-12-14T02:51:04.259Z,0.87
2018-12-14T02:53:33.285Z,0.83
2018-12-14T02:56:02.297Z,0.85
2018-12-14T02:58:31.414Z,0.89
2018-12-14T03:01:00.436Z,0.86
2018-12-14T03:03:29.400Z,0.81
2018-12-14T03:05:58.412Z,0.82
2018-12-14T03:08:27.410Z,0.83
2018-12-14T03:10:56.377Z,0.78
2018-12-14T03:13:25.450Z,0.83
2018-12-14T03:15:54.427Z,0.88
2018-12-14T03:18:23.395Z,0.86
2018-12-14T03:20:52.384Z,0.85
2018-12-14T03:23:21.362Z,0.82
2018-12-14T03:25:50.592Z,0.77
2018-12-14T03:28:19.634Z,0.77
2018-12-14T03:30:48.613Z,0.78
2018-12-14T03:33:17.686Z,0.78
2018-12-14T03:35:46.771Z,0.76
2018-12-14T03:38:15.812Z,0.74
2018-12-14T03:40:44.935Z,0.75
2018-12-14T03:43:13.943Z,0.73
2018-12-14T03:45:42.987Z,0.74
2018-12-14T03:48:12.090Z,0.73
2018-12-14T03:50:41.175Z,0.70
2018-12-14T03:53:10.225Z,0.69
2018-12-14T03:55:39.281Z,0.68
2018-12-14T03:58:08.329Z,0.65
2018-12-14T04:00:37.519Z,0.64
2018-12-14T04:03:06.802Z,0.64
2018-12-14T04:05:36.065Z,0.63
2018-12-14T04:08:05.111Z,0.62
2018-12-14T04:10:34.157Z,0.62
2018-12-14T04:13:03.236Z,0.63
2018-12-14T04:15:32.391Z,0.63
2018-12-14T04:18:01.447Z,0.61
2018-12-14T04:20:30.474Z,0.61
2018-12-14T04:22:59.599Z,0.62
2018-12-14T04:25:28.641Z,0.63
2018-12-14T04:27:57.611Z,0.61
2018-12-14T04:30:26.730Z,0.59
2018-12-14T04:32:56.876Z,0.60
2018-12-14T04:35:25.943Z,0.60
2018-12-14T04:37:55.027Z,0.58
2018-12-14T04:40:24.112Z,0.56
2018-12-14T04:42:53.167Z,0.54
2018-12-14T04:45:22.362Z,0.52
2018-12-14T04:47:51.365Z,0.54
2018-12-14T04:50:20.329Z,0.59
2018-12-14T04:52:49.327Z,0.61
2018-12-14T04:55:18.471Z,0.68
2018-12-14T04:57:47.516Z,0.72
2018-12-14T05:00:16.755Z,0.73
2018-12-14T05:02:45.814Z,0.70
2018-12-14T05:05:14.907Z,0.75
2018-12-14T05:07:43.895Z,0.81
2018-12-14T05:10:13.122Z,0.79
2018-12-14T05:12:42.103Z,0.73
2018-12-14T05:15:11.209Z,0.68
2018-12-14T05:17:40.391Z,0.65
2018-12-14T05:20:09.613Z,0.61
2018-12-14T05:22:38.596Z,0.61
2018-12-14T05:25:07.758Z,0.61
2018-12-14T05:27:36.880Z,0.61
2018-12-14T05:30:07.316Z,0.61
2018-12-14T05:32:36.298Z,0.59
2018-12-14T05:35:05.623Z,0.59
2018-12-14T05:37:34.682Z,0.63
2018-12-14T05:40:03.798Z,0.61
2018-12-14T05:42:32.814Z,0.60
2018-12-14T05:45:01.770Z,0.63
2018-12-14T05:47:30.779Z,0.59
2018-12-14T05:49:59.856Z,0.58
2018-12-14T05:52:29.042Z,0.56
2018-12-14T05:54:58.092Z,0.57
2018-12-14T05:57:27.261Z,0.56
2018-12-14T05:59:57.695Z,0.56
2018-12-14T06:02:26.837Z,0.54
2018-12-14T06:04:56.044Z,0.55
2018-12-14T06:07:25.137Z,0.55
2018-12-14T06:09:54.135Z,0.54
2018-12-14T06:12:23.405Z,0.58
2018-12-14T06:14:52.482Z,0.55
2018-12-14T06:17:21.571Z,0.54
2018-12-14T06:19:50.562Z,0.62
2018-12-14T06:22:20.202Z,0.68
2018-12-14T06:24:49.378Z,0.67
2018-12-14T06:27:18.636Z,0.61
2018-12-14T06:29:47.757Z,0.60
2018-12-14T06:32:17.125Z,0.62
2018-12-14T06:34:46.211Z,0.59
2018-12-14T06:37:15.764Z,0.59
2018-12-14T06:39:44.834Z,0.57
2018-12-14T06:42:14.458Z,0.59
2018-12-14T06:44:43.532Z,0.58
2018-12-14T06:47:12.627Z,0.56
2018-12-14T06:49:41.742Z,0.57
2018-12-14T06:52:10.889Z,0.57
2018-12-14T06:54:40.678Z,0.59
2018-12-14T06:57:09.741Z,0.66
2018-12-14T06:59:39.418Z,0.70
2018-12-14T07:02:08.479Z,0.64
2018-12-14T07:04:38.565Z,0.59
2018-12-14T07:07:07.723Z,0.63
2018-12-14T07:09:37.867Z,0.65
2018-12-14T07:12:06.973Z,0.63
2018-12-14T07:14:36.938Z,0.60
2018-12-14T07:17:05.939Z,0.61
2018-12-14T07:19:35.131Z,0.63
2018-12-14T07:22:10.737Z,0.61
2018-12-14T07:24:39.776Z,0.59
2018-12-14T07:27:09.949Z,0.58
2018-12-14T07:29:39.033Z,0.58
2018-12-14T07:32:08.212Z,0.61
2018-12-14T07:34:37.210Z,0.59
2018-12-14T07:37:06.401Z,0.57
2018-12-14T07:39:35.399Z,0.60
2018-12-14T07:42:04.607Z,0.59
2018-12-14T07:44:33.803Z,0.62
2018-12-14T07:47:02.962Z,0.64
2018-12-14T07:49:32.051Z,0.66
2018-12-14T07:52:01.080Z,0.69
2018-12-14T07:54:30.145Z,0.67
2018-12-14T07:56:59.131Z,0.73
2018-12-14T07:59:28.146Z,0.74
2018-12-14T08:01:57.146Z,0.75
2018-12-14T08:04:26.433Z,0.79
2018-12-14T08:06:56.004Z,0.82
2018-12-14T08:09:25.397Z,0.82
2018-12-14T08:11:54.437Z,0.83
2018-12-14T08:14:23.497Z,1.01
2018-12-14T08:16:52.610Z,1.20
2018-12-14T08:19:21.720Z,1.28
2018-12-14T08:21:50.767Z,1.37
2018-12-14T08:24:19.769Z,1.39
2018-12-14T08:26:48.819Z,1.50
2018-12-14T08:29:18.220Z,1.55
2018-12-14T08:31:47.308Z,1.72
2018-12-14T08:34:16.299Z,1.85
2018-12-14T08:36:45.473Z,1.85
2018-12-14T08:39:14.571Z,1.85
2018-12-14T08:41:43.763Z,2.08
2018-12-14T08:44:12.917Z,2.21
2018-12-14T08:46:41.914Z,2.28
2018-12-14T08:49:10.939Z,2.10
2018-12-14T08:51:39.950Z,1.86
2018-12-14T08:54:09.038Z,1.80
2018-12-14T08:56:38.118Z,1.69
2018-12-14T08:59:07.152Z,1.55
2018-12-14T09:01:36.678Z,1.47
2018-12-14T09:04:05.738Z,1.43
2018-12-14T09:06:35.022Z,1.37
2018-12-14T09:09:06.114Z,1.33
2018-12-14T09:11:35.239Z,1.24
2018-12-14T09:14:04.314Z,1.21
2018-12-14T09:16:33.523Z,1.24
2018-12-14T09:19:02.715Z,1.31
2018-12-14T09:21:31.837Z,1.39
2018-12-14T09:24:00.912Z,1.38
2018-12-14T09:26:30.715Z,1.36
2018-12-14T09:29:00.136Z,1.28
2018-12-14T09:31:29.388Z,1.31
2018-12-14T09:33:58.428Z,1.30
2018-12-14T09:36:27.543Z,1.33
2018-12-14T09:38:56.515Z,1.27
2018-12-14T09:41:25.582Z,1.28
2018-12-14T09:43:54.900Z,1.29
2018-12-14T09:46:23.975Z,1.31
2018-12-14T09:48:53.025Z,1.36
2018-12-14T09:51:22.051Z,1.39
2018-12-14T09:53:51.075Z,1.41
2018-12-14T09:56:20.188Z,1.42
2018-12-14T09:58:49.166Z,1.40
2018-12-14T10:01:18.210Z,1.38
2018-12-14T10:03:47.615Z,1.39
2018-12-14T10:06:16.772Z,1.43
2018-12-14T10:08:45.773Z,1.45
2018-12-14T10:11:15.158Z,1.50
2018-12-14T10:13:44.275Z,1.47
2018-12-14T10:16:13.490Z,1.43
2018-12-14T10:18:42.955Z,1.47
2018-12-14T10:21:12.142Z,1.50
2018-12-14T10:23:41.262Z,1.49
2018-12-14T10:26:10.246Z,1.50
2018-12-14T10:28:39.411Z,1.51
2018-12-14T10:31:08.574Z,1.52
2018-12-14T10:33:37.945Z,1.54
2018-12-14T10:36:07.055Z,1.52
2018-12-14T10:38:36.171Z,1.54
2018-12-14T10:41:05.504Z,1.55
2018-12-14T10:43:34.854Z,1.56
2018-12-14T10:46:04.073Z,1.57
2018-12-14T10:48:33.235Z,1.56
2018-12-14T10:51:02.254Z,1.56
2018-12-14T10:53:31.343Z,1.58
2018-12-14T10:56:00.506Z,1.59
2018-12-14T10:58:29.640Z,1.63
2018-12-14T11:01:04.101Z,1.65
2018-12-14T11:03:33.214Z,1.67
2018-12-14T11:06:02.372Z,1.67
2018-12-14T11:08:31.434Z,1.69
2018-12-14T11:11:00.420Z,1.70
2018-12-14T11:13:29.513Z,1.67
2018-12-14T11:15:58.618Z,1.67
2018-12-14T11:18:29.519Z,1.67
2018-12-14T11:20:59.219Z,1.68
2018-12-14T11:23:29.874Z,1.71
2018-12-14T11:25:58.870Z,1.78
2018-12-14T11:28:28.812Z,1.79
2018-12-14T11:30:58.321Z,1.78
2018-12-14T11:33:27.342Z,1.73
2018-12-14T11:35:56.467Z,1.74
2018-12-14T11:38:25.472Z,1.70
2018-12-14T11:40:54.543Z,1.66
2018-12-14T11:43:23.663Z,1.66
2018-12-14T11:45:52.795Z,1.67
2018-12-14T11:48:21.891Z,1.62
2018-12-14T11:50:51.137Z,1.59
2018-12-14T11:53:20.157Z,1.55
2018-12-14T11:55:49.623Z,1.56
2018-12-14T11:58:18.913Z,1.57
2018-12-14T12:00:47.954Z,1.60
2018-12-14T12:03:16.989Z,1.61
2018-12-14T12:05:46.195Z,1.59
2018-12-14T12:08:15.803Z,1.58
2018-12-14T12:10:44.911Z,1.61
2018-12-14T12:13:13.928Z,1.59
2018-12-14T12:15:43.088Z,1.60
2018-12-14T12:18:12.090Z,1.56
2018-12-14T12:20:41.187Z,1.52
2018-12-14T12:23:10.217Z,1.51
2018-12-14T12:25:39.208Z,1.47
2018-12-14T12:28:08.205Z,1.41
2018-12-14T12:30:37.303Z,1.41
2018-12-14T12:33:06.469Z,1.42
2018-12-14T12:35:35.566Z,1.45
2018-12-14T12:38:04.644Z,1.45
2018-12-14T12:40:33.664Z,1.49
2018-12-14T12:43:02.774Z,1.51
2018-12-14T12:45:32.817Z,1.52
2018-12-14T12:48:01.846Z,1.48
2018-12-14T12:50:30.835Z,1.50
2018-12-14T12:52:59.845Z,1.52
2018-12-14T12:55:28.826Z,1.47
2018-12-14T12:57:57.823Z,1.48
2018-12-14T13:00:26.982Z,1.48
2018-12-14T13:02:56.088Z,1.51
2018-12-14T13:05:25.100Z,1.49
2018-12-14T13:07:54.249Z,1.48
2018-12-14T13:10:23.753Z,1.46
2018-12-14T13:12:53.438Z,1.41
2018-12-14T13:15:22.507Z,1.42
2018-12-14T13:17:51.506Z,1.44
2018-12-14T13:20:20.801Z,1.41
2018-12-14T13:22:50.429Z,1.38
2018-12-14T13:25:19.689Z,1.39
2018-12-14T13:27:48.677Z,1.36
2018-12-14T13:30:17.717Z,1.36
2018-12-14T13:32:46.950Z,1.35
2018-12-14T13:35:16.139Z,1.37
2018-12-14T13:37:45.183Z,1.37
2018-12-14T13:40:14.476Z,1.37
2018-12-14T13:42:43.679Z,1.32
2018-12-14T13:45:12.933Z,1.36
2018-12-14T13:47:42.132Z,1.35
2018-12-14T13:50:11.347Z,1.31
2018-12-14T13:52:41.276Z,1.27
2018-12-14T13:55:10.442Z,1.26
2018-12-14T13:57:39.765Z,1.25
2018-12-14T14:00:09.330Z,1.23
2018-12-14T14:02:38.763Z,1.20
2018-12-14T14:05:08.400Z,1.14
2018-12-14T14:07:37.408Z,1.16
2018-12-14T14:10:06.832Z,1.15
2018-12-14T14:12:36.294Z,1.20
2018-12-14T14:15:06.904Z,1.21
2018-12-14T14:17:36.079Z,1.15
2018-12-14T14:20:06.829Z,1.11
2018-12-14T14:22:36.302Z,1.13
2018-12-14T14:25:06.099Z,1.12
2018-12-14T14:27:35.416Z,1.11
2018-12-14T14:30:05.145Z,1.09
2018-12-14T14:32:34.415Z,1.06
2018-12-14T14:35:03.464Z,1.06
2018-12-14T14:37:32.517Z,1.01
2018-12-14T14:40:03.028Z,0.98
2018-12-14T14:42:32.098Z,0.97
2018-12-14T14:45:01.201Z,0.96
2018-12-14T14:47:30.311Z,0.94
2018-12-14T14:49:59.753Z,0.95
2018-12-14T14:52:29.584Z,0.93
2018-12-14T14:54:58.996Z,0.96
2018-12-14T14:57:29.396Z,0.90
2018-12-14T14:59:58.598Z,0.87
2018-12-14T15:02:27.756Z,0.86
2018-12-14T15:04:56.877Z,0.83
2018-12-14T15:07:25.951Z,0.80
2018-12-14T15:09:54.914Z,0.89
2018-12-14T15:12:24.778Z,0.81
2018-12-14T15:14:54.359Z,0.79
2018-12-14T15:17:23.427Z,0.82
2018-12-14T15:19:52.528Z,0.80
2018-12-14T15:22:21.723Z,0.77
2018-12-14T15:24:52.634Z,0.75
2018-12-14T15:27:21.718Z,0.75
2018-12-14T15:29:50.785Z,0.74
2018-12-14T15:32:19.950Z,0.70
2018-12-14T15:34:49.461Z,0.67
2018-12-14T15:37:18.587Z,0.65
2018-12-14T15:39:47.670Z,0.65
2018-12-14T15:42:16.885Z,0.63
2018-12-14T15:44:45.918Z,0.62
2018-12-14T15:47:15.117Z,0.62
2018-12-14T15:49:44.238Z,0.62
2018-12-14T15:52:13.327Z,0.62
2018-12-14T15:54:42.474Z,0.66
2018-12-14T15:57:12.255Z,0.61
2018-12-14T15:59:41.345Z,0.61
2018-12-14T16:02:10.373Z,0.59
2018-12-14T16:04:39.457Z,0.59
2018-12-14T16:07:08.660Z,0.59
2018-12-14T16:09:37.806Z,0.58
2018-12-14T16:12:06.818Z,0.55
2018-12-14T16:14:35.832Z,0.50
2018-12-14T16:17:04.987Z,0.47
2018-12-14T16:19:34.173Z,0.48
2018-12-14T16:22:03.453Z,0.49
2018-12-14T16:24:32.572Z,0.51
2018-12-14T16:27:01.606Z,0.51
2018-12-14T16:29:30.888Z,0.51
2018-12-14T16:32:00.017Z,0.44
2018-12-14T16:34:29.200Z,0.43
2018-12-14T16:36:58.348Z,0.43
2018-12-14T16:39:27.620Z,0.43
2018-12-14T16:41:56.620Z,0.42
2018-12-14T16:44:25.809Z,0.43
2018-12-14T16:46:54.813Z,0.41
2018-12-14T16:49:23.827Z,0.39
2018-12-14T16:51:52.878Z,0.38
2018-12-14T16:54:21.904Z,0.41
2018-12-14T16:56:50.914Z,0.40
2018-12-14T16:59:20.056Z,0.39
2018-12-14T17:01:49.138Z,0.40
2018-12-14T17:04:18.201Z,0.41
2018-12-14T17:06:47.419Z,0.44
2018-12-14T17:09:16.822Z,0.42
2018-12-14T17:11:46.065Z,0.40
2018-12-14T17:14:15.071Z,0.37
2018-12-14T17:16:44.180Z,0.35
2018-12-14T17:19:13.192Z,0.35
2018-12-14T17:21:42.156Z,0.34
2018-12-14T17:24:11.293Z,0.34
2018-12-14T17:26:40.299Z,0.37
2018-12-14T17:29:09.336Z,0.38
2018-12-14T17:31:38.385Z,0.37
2018-12-14T17:34:07.397Z,0.35
2018-12-14T17:36:36.393Z,0.35
2018-12-14T17:39:06.513Z,0.37
2018-12-14T17:41:35.627Z,0.37
2018-12-14T17:44:04.744Z,0.36
2018-12-14T17:46:34.366Z,0.37
2018-12-14T17:49:03.450Z,0.38
2018-12-14T17:51:33.157Z,0.40
2018-12-14T17:54:02.450Z,0.38
2018-12-14T17:56:31.457Z,0.36
2018-12-14T17:59:01.372Z,0.35
2018-12-14T18:01:30.492Z,0.37
2018-12-14T18:03:59.469Z,0.37
2018-12-14T18:06:28.621Z,0.34
2018-12-14T18:08:57.744Z,0.35
2018-12-14T18:11:26.881Z,0.36
2018-12-14T18:13:56.187Z,0.33
2018-12-14T18:16:26.198Z,0.30
2018-12-14T18:18:55.193Z,0.30
2018-12-14T18:21:24.214Z,0.31
2018-12-14T18:23:53.210Z,0.34
2018-12-14T18:26:22.295Z,0.36
2018-12-14T18:28:51.370Z,0.32
2018-12-14T18:31:20.457Z,0.31
2018-12-14T18:33:49.617Z,0.29
2018-12-14T18:36:20.483Z,0.32
2018-12-14T18:38:49.469Z,0.29
2018-12-14T18:41:18.504Z,0.25
2018-12-14T18:43:47.563Z,0.26
2018-12-14T18:46:16.597Z,0.26
2018-12-14T18:48:45.729Z,0.31
2018-12-14T18:51:14.857Z,0.31
2018-12-14T18:53:53.788Z,0.30
2018-12-14T18:56:23.120Z,0.29
2018-12-14T18:58:53.242Z,0.26
2018-12-14T19:01:22.966Z,0.26
2018-12-14T19:03:54.160Z,0.23
2018-12-14T19:06:23.285Z,0.21
2018-12-14T19:08:52.388Z,0.19
2018-12-14T19:11:21.454Z,0.20
2018-12-14T19:14:07.849Z,0.21
2018-12-14T19:16:37.735Z,0.17
2018-12-14T19:19:06.899Z,0.16
2018-12-14T19:21:35.955Z,0.14
2018-12-14T19:24:05.156Z,0.15
2018-12-14T19:26:34.270Z,0.13
2018-12-14T19:29:03.420Z,0.14
2018-12-14T19:31:32.596Z,0.13
2018-12-14T19:34:01.745Z,0.15
2018-12-14T19:36:30.898Z,0.14
2018-12-14T19:38:59.900Z,0.14
2018-12-14T19:41:29.063Z,0.13
2018-12-14T19:43:58.264Z,0.15
2018-12-14T19:46:27.712Z,0.12
2018-12-14T19:48:56.774Z,0.10
2018-12-14T19:51:26.520Z,0.09
2018-12-14T19:53:55.644Z,0.11
2018-12-14T19:56:24.847Z,0.11
2018-12-14T19:58:54.295Z,0.11
2018-12-14T20:01:23.509Z,0.07
2018-12-14T20:03:52.896Z,0.07
2018-12-14T20:06:22.060Z,0.05
2018-12-14T20:08:51.346Z,0.04
2018-12-14T20:11:20.620Z,0.03
2018-12-14T20:13:50.424Z,0.02
2018-12-14T20:16:19.611Z,-0.02
2018-12-14T20:18:48.755Z,-0.04
2018-12-14T20:21:18.104Z,-0.04
2018-12-14T20:23:47.290Z,-0.01
2018-12-14T20:26:16.420Z,-0.03
2018-12-14T20:28:45.511Z,-0.04
2018-12-14T20:31:14.794Z,-0.05
2018-12-14T20:33:43.915Z,-0.09
2018-12-14T20:36:13.803Z,-0.09
2018-12-14T20:38:43.759Z,-0.10
2018-12-14T20:41:12.979Z,-0.09
2018-12-14T20:43:42.330Z,-0.08
2018-12-14T20:46:11.939Z,-0.07
2018-12-14T20:48:41.619Z,-0.06
2018-12-14T20:51:11.145Z,-0.06
2018-12-14T20:53:40.606Z,-0.10
2018-12-14T20:56:10.677Z,-0.10
2018-12-14T20:58:40.008Z,-0.10
2018-12-14T21:01:09.321Z,-0.13
2018-12-14T21:03:38.698Z,-0.14
2018-12-14T21:06:07.796Z,-0.14
2018-12-14T21:08:37.326Z,-0.11
2018-12-14T21:11:06.370Z,-0.11
2018-12-14T21:13:35.453Z,-0.15
2018-12-14T21:16:04.623Z,-0.16
2018-12-14T21:18:33.810Z,-0.17
2018-12-14T21:21:03.232Z,-0.17
2018-12-14T21:23:32.277Z,-0.21
2018-12-14T21:26:01.484Z,-0.17
2018-12-14T21:28:30.808Z,-0.20
2018-12-14T21:30:59.949Z,-0.21
2018-12-14T21:33:28.958Z,-0.22
2018-12-14T21:35:58.102Z,-0.20
2018-12-14T21:38:27.319Z,-0.20
2018-12-14T21:40:56.429Z,-0.20
2018-12-14T21:43:25.429Z,-0.21
2018-12-14T21:45:54.625Z,-0.22
2018-12-14T21:48:23.711Z,-0.20
2018-12-14T21:50:52.928Z,-0.22
2018-12-14T21:53:22.065Z,-0.25
2018-12-14T21:55:51.168Z,-0.26
2018-12-14T21:58:20.456Z,-0.28
2018-12-14T22:00:49.564Z,-0.30
2018-12-14T22:03:18.603Z,-0.26
2018-12-14T22:05:47.621Z,-0.26
2018-12-14T22:08:16.778Z,-0.27
2018-12-14T22:10:45.893Z,-0.27
2018-12-14T22:13:15.696Z,-0.29
2018-12-14T22:15:44.872Z,-0.29
2018-12-14T22:18:14.038Z,-0.30
2018-12-14T22:20:43.156Z,-0.29
2018-12-14T22:23:12.172Z,-0.31
2018-12-14T22:25:41.237Z,-0.31
2018-12-14T22:28:10.378Z,-0.32
2018-12-14T22:30:39.612Z,-0.31
2018-12-14T22:33:08.760Z,-0.30
2018-12-14T22:35:38.042Z,-0.27
2018-12-14T22:38:07.176Z,-0.31
2018-12-14T22:40:37.847Z,-0.32
2018-12-14T22:43:06.959Z,-0.25
2018-12-14T22:45:36.128Z,-0.26
2018-12-14T22:48:05.385Z,-0.26
2018-12-14T22:50:34.704Z,-0.27
2018-12-14T22:53:03.923Z,-0.28
2018-12-14T22:55:33.299Z,-0.29
2018-12-14T22:58:02.537Z,-0.27
2018-12-14T23:00:32.524Z,-0.31
2018-12-14T23:03:02.327Z,-0.32
2018-12-14T23:05:31.462Z,-0.34
2018-12-14T23:08:00.624Z,-0.32
2018-12-14T23:10:29.746Z,-0.32
2018-12-14T23:12:58.923Z,-0.32
2018-12-14T23:15:28.150Z,-0.31
2018-12-14T23:17:57.203Z,-0.34
2018-12-14T23:20:26.409Z,-0.38
2018-12-14T23:22:55.462Z,-0.37
2018-12-14T23:25:24.464Z,-0.36
2018-12-14T23:27:53.470Z,-0.34
2018-12-14T23:30:22.524Z,-0.39
2018-12-14T23:32:51.605Z,-0.36
2018-12-14T23:35:20.611Z,-0.33
2018-12-14T23:37:49.705Z,-0.29
2018-12-14T23:40:18.805Z,-0.31
2018-12-14T23:42:47.945Z,-0.33
2018-12-14T23:45:17.024Z,-0.34
2018-12-14T23:47:46.129Z,-0.33
2018-12-14T23:50:15.171Z,-0.37
2018-12-14T23:52:44.389Z,-0.36
2018-12-14T23:55:13.657Z,-0.38
2018-12-14T23:57:42.738Z,-0.36
